sensor_id;sensor_type;location;lat;lon;timestamp;temperature;humidity
68439;SHT31;55421;51.600;5.718;2023-02-15T00:00:00;4.20;81.39
68439;SHT31;55421;51.600;5.718;2023-02-15T00:02:27;4.20;81.27
68439;SHT31;55421;51.600;5.718;2023-02-15T00:04:54;4.15;80.93
68439;SHT31;55421;51.600;5.718;2023-02-15T00:07:22;4.07;80.58
68439;SHT31;55421;51.600;5.718;2023-02-15T00:09:48;3.99;80.51
68439;SHT31;55421;51.600;5.718;2023-02-15T00:12:15;3.95;80.66
68439;SHT31;55421;51.600;5.718;2023-02-15T00:14:42;3.86;80.32
68439;SHT31;55421;51.600;5.718;2023-02-15T00:17:09;3.76;80.22
68439;SHT31;55421;51.600;5.718;2023-02-15T00:19:36;3.73;80.48
68439;SHT31;55421;51.600;5.718;2023-02-15T00:22:02;3.73;80.78
68439;SHT31;55421;51.600;5.718;2023-02-15T00:24:29;3.72;81.00
68439;SHT31;55421;51.600;5.718;2023-02-15T00:26:55;3.71;81.11
68439;SHT31;55421;51.600;5.718;2023-02-15T00:29:21;3.68;81.23
68439;SHT31;55421;51.600;5.718;2023-02-15T00:31:48;3.66;81.34
68439;SHT31;55421;51.600;5.718;2023-02-15T00:34:18;3.62;81.40
68439;SHT31;55421;51.600;5.718;2023-02-15T00:36:44;3.59;81.42
68439;SHT31;55421;51.600;5.718;2023-02-15T00:39:11;3.59;81.55
68439;SHT31;55421;51.600;5.718;2023-02-15T00:41:39;3.62;81.61
68439;SHT31;55421;51.600;5.718;2023-02-15T00:44:06;3.64;81.62
68439;SHT31;55421;51.600;5.718;2023-02-15T00:46:33;3.65;81.66
68439;SHT31;55421;51.600;5.718;2023-02-15T00:49:00;3.65;81.50
68439;SHT31;55421;51.600;5.718;2023-02-15T00:51:27;3.63;81.35
68439;SHT31;55421;51.600;5.718;2023-02-15T00:53:54;3.65;81.49
68439;SHT31;55421;51.600;5.718;2023-02-15T00:56:21;3.67;81.48
68439;SHT31;55421;51.600;5.718;2023-02-15T00:58:47;3.69;81.40
68439;SHT31;55421;51.600;5.718;2023-02-15T01:01:15;3.69;81.40
68439;SHT31;55421;51.600;5.718;2023-02-15T01:03:44;3.69;81.39
68439;SHT31;55421;51.600;5.718;2023-02-15T01:06:13;3.66;81.32
68439;SHT31;55421;51.600;5.718;2023-02-15T01:08:42;3.63;81.18
68439;SHT31;55421;51.600;5.718;2023-02-15T01:11:11;3.57;81.04
68439;SHT31;55421;51.600;5.718;2023-02-15T01:13:41;3.52;80.93
68439;SHT31;55421;51.600;5.718;2023-02-15T01:16:07;3.46;80.97
68439;SHT31;55421;51.600;5.718;2023-02-15T01:18:34;3.40;81.00
68439;SHT31;55421;51.600;5.718;2023-02-15T01:21:08;3.33;80.99
68439;SHT31;55421;51.600;5.718;2023-02-15T01:23:41;3.27;80.94
68439;SHT31;55421;51.600;5.718;2023-02-15T01:26:08;3.24;81.06
68439;SHT31;55421;51.600;5.718;2023-02-15T01:28:36;3.24;81.47
68439;SHT31;55421;51.600;5.718;2023-02-15T01:31:09;3.27;81.68
68439;SHT31;55421;51.600;5.718;2023-02-15T01:33:39;3.28;81.79
68439;SHT31;55421;51.600;5.718;2023-02-15T01:36:06;3.29;81.80
68439;SHT31;55421;51.600;5.718;2023-02-15T01:38:34;3.28;81.76
68439;SHT31;55421;51.600;5.718;2023-02-15T01:41:02;3.27;81.70
68439;SHT31;55421;51.600;5.718;2023-02-15T01:43:58;3.23;81.62
68439;SHT31;55421;51.600;5.718;2023-02-15T01:46:30;3.18;81.52
68439;SHT31;55421;51.600;5.718;2023-02-15T01:49:17;3.17;81.59
68439;SHT31;55421;51.600;5.718;2023-02-15T01:51:50;3.14;81.45
68439;SHT31;55421;51.600;5.718;2023-02-15T01:54:21;3.08;81.29
68439;SHT31;55421;51.600;5.718;2023-02-15T01:56:54;3.01;81.19
68439;SHT31;55421;51.600;5.718;2023-02-15T01:59:26;2.92;81.11
68439;SHT31;55421;51.600;5.718;2023-02-15T02:01:53;2.86;81.10
68439;SHT31;55421;51.600;5.718;2023-02-15T02:04:29;2.80;81.15
68439;SHT31;55421;51.600;5.718;2023-02-15T02:07:04;2.76;81.25
68439;SHT31;55421;51.600;5.718;2023-02-15T02:09:32;2.73;81.38
68439;SHT31;55421;51.600;5.718;2023-02-15T02:11:58;2.69;81.40
68439;SHT31;55421;51.600;5.718;2023-02-15T02:14:26;2.68;81.40
68439;SHT31;55421;51.600;5.718;2023-02-15T02:16:56;2.67;81.50
68439;SHT31;55421;51.600;5.718;2023-02-15T02:40:32;2.81;82.60
68439;SHT31;55421;51.600;5.718;2023-02-15T02:49:11;2.71;82.40
68439;SHT31;55421;51.600;5.718;2023-02-15T02:51:37;2.69;82.35
68439;SHT31;55421;51.600;5.718;2023-02-15T02:54:04;2.67;82.30
68439;SHT31;55421;51.600;5.718;2023-02-15T02:56:41;2.64;82.31
68439;SHT31;55421;51.600;5.718;2023-02-15T02:59:18;2.61;82.31
68439;SHT31;55421;51.600;5.718;2023-02-15T03:01:55;2.59;82.31
68439;SHT31;55421;51.600;5.718;2023-02-15T03:04:39;2.55;82.23
68439;SHT31;55421;51.600;5.718;2023-02-15T03:07:18;2.53;82.20
68439;SHT31;55421;51.600;5.718;2023-02-15T03:09:50;2.53;82.28
68439;SHT31;55421;51.600;5.718;2023-02-15T03:12:29;2.54;82.30
68439;SHT31;55421;51.600;5.718;2023-02-15T03:15:03;2.54;82.34
68439;SHT31;55421;51.600;5.718;2023-02-15T03:17:36;2.54;82.30
68439;SHT31;55421;51.600;5.718;2023-02-15T03:20:14;2.55;82.31
68439;SHT31;55421;51.600;5.718;2023-02-15T03:22:53;2.56;82.44
68439;SHT31;55421;51.600;5.718;2023-02-15T03:25:31;2.57;82.50
68439;SHT31;55421;51.600;5.718;2023-02-15T03:28:09;2.60;82.65
68439;SHT31;55421;51.600;5.718;2023-02-15T03:30:42;2.62;82.77
68439;SHT31;55421;51.600;5.718;2023-02-15T03:33:14;2.64;82.80
68439;SHT31;55421;51.600;5.718;2023-02-15T03:35:47;2.63;82.80
68439;SHT31;55421;51.600;5.718;2023-02-15T03:38:25;2.61;82.77
68439;SHT31;55421;51.600;5.718;2023-02-15T03:41:36;2.57;82.55
68439;SHT31;55421;51.600;5.718;2023-02-15T03:44:14;2.54;82.46
68439;SHT31;55421;51.600;5.718;2023-02-15T03:47:03;2.51;82.51
68439;SHT31;55421;51.600;5.718;2023-02-15T03:49:40;2.49;82.64
68439;SHT31;55421;51.600;5.718;2023-02-15T03:52:14;2.48;82.81
68439;SHT31;55421;51.600;5.718;2023-02-15T03:54:43;2.46;82.90
68439;SHT31;55421;51.600;5.718;2023-02-15T03:57:15;2.48;82.92
68439;SHT31;55421;51.600;5.718;2023-02-15T04:05:46;2.50;83.00
68439;SHT31;55421;51.600;5.718;2023-02-15T04:08:12;2.46;82.94
68439;SHT31;55421;51.600;5.718;2023-02-15T04:10:39;2.41;82.89
68439;SHT31;55421;51.600;5.718;2023-02-15T04:13:29;2.38;82.80
68439;SHT31;55421;51.600;5.718;2023-02-15T04:15:57;2.35;82.80
68439;SHT31;55421;51.600;5.718;2023-02-15T04:18:31;2.33;82.81
68439;SHT31;55421;51.600;5.718;2023-02-15T04:21:28;2.34;82.87
68439;SHT31;55421;51.600;5.718;2023-02-15T04:24:15;2.36;82.96
68439;SHT31;55421;51.600;5.718;2023-02-15T04:27:01;2.36;82.96
68439;SHT31;55421;51.600;5.718;2023-02-15T04:29:29;2.37;83.00
68439;SHT31;55421;51.600;5.718;2023-02-15T04:31:59;2.37;83.01
68439;SHT31;55421;51.600;5.718;2023-02-15T04:34:30;2.38;82.98
68439;SHT31;55421;51.600;5.718;2023-02-15T04:36:56;2.39;82.97
68439;SHT31;55421;51.600;5.718;2023-02-15T04:39:23;2.39;82.96
68439;SHT31;55421;51.600;5.718;2023-02-15T04:41:49;2.39;82.94
68439;SHT31;55421;51.600;5.718;2023-02-15T04:44:16;2.37;82.89
68439;SHT31;55421;51.600;5.718;2023-02-15T04:46:42;2.34;82.84
68439;SHT31;55421;51.600;5.718;2023-02-15T04:49:09;2.32;82.81
68439;SHT31;55421;51.600;5.718;2023-02-15T04:51:37;2.30;82.74
68439;SHT31;55421;51.600;5.718;2023-02-15T04:54:04;2.29;82.70
68439;SHT31;55421;51.600;5.718;2023-02-15T04:56:30;2.30;82.73
68439;SHT31;55421;51.600;5.718;2023-02-15T04:58:59;2.29;82.69
68439;SHT31;55421;51.600;5.718;2023-02-15T05:01:25;2.27;82.58
68439;SHT31;55421;51.600;5.718;2023-02-15T05:03:52;2.22;82.48
68439;SHT31;55421;51.600;5.718;2023-02-15T05:06:18;2.18;82.42
68439;SHT31;55421;51.600;5.718;2023-02-15T05:08:44;2.13;82.49
68439;SHT31;55421;51.600;5.718;2023-02-15T05:11:11;2.11;82.53
68439;SHT31;55421;51.600;5.718;2023-02-15T05:13:38;2.08;82.60
68439;SHT31;55421;51.600;5.718;2023-02-15T05:16:04;2.07;82.74
68439;SHT31;55421;51.600;5.718;2023-02-15T05:18:31;2.06;82.84
68439;SHT31;55421;51.600;5.718;2023-02-15T05:20:57;2.06;82.96
68439;SHT31;55421;51.600;5.718;2023-02-15T05:23:23;2.04;83.00
68439;SHT31;55421;51.600;5.718;2023-02-15T05:25:51;2.03;83.07
68439;SHT31;55421;51.600;5.718;2023-02-15T05:28:37;2.02;83.09
68439;SHT31;55421;51.600;5.718;2023-02-15T05:31:08;2.01;83.06
68439;SHT31;55421;51.600;5.718;2023-02-15T05:33:42;2.04;83.19
68439;SHT31;55421;51.600;5.718;2023-02-15T05:36:11;2.06;83.25
68439;SHT31;55421;51.600;5.718;2023-02-15T05:38:40;2.07;83.31
68439;SHT31;55421;51.600;5.718;2023-02-15T05:41:08;2.07;83.34
68439;SHT31;55421;51.600;5.718;2023-02-15T05:43:36;2.04;83.30
68439;SHT31;55421;51.600;5.718;2023-02-15T05:46:04;2.03;83.30
68439;SHT31;55421;51.600;5.718;2023-02-15T05:48:32;2.04;83.42
68439;SHT31;55421;51.600;5.718;2023-02-15T05:51:00;2.07;83.56
68439;SHT31;55421;51.600;5.718;2023-02-15T05:53:30;2.13;83.60
68439;SHT31;55421;51.600;5.718;2023-02-15T05:55:59;2.17;83.64
68439;SHT31;55421;51.600;5.718;2023-02-15T05:58:29;2.19;83.63
68439;SHT31;55421;51.600;5.718;2023-02-15T06:00:59;2.19;83.62
68439;SHT31;55421;51.600;5.718;2023-02-15T06:03:26;2.18;83.62
68439;SHT31;55421;51.600;5.718;2023-02-15T06:05:54;2.17;83.69
68439;SHT31;55421;51.600;5.718;2023-02-15T06:08:20;2.19;83.70
68439;SHT31;55421;51.600;5.718;2023-02-15T06:10:47;2.20;83.68
68439;SHT31;55421;51.600;5.718;2023-02-15T06:13:13;2.22;83.66
68439;SHT31;55421;51.600;5.718;2023-02-15T06:15:40;2.24;83.64
68439;SHT31;55421;51.600;5.718;2023-02-15T06:18:06;2.24;83.58
68439;SHT31;55421;51.600;5.718;2023-02-15T06:20:33;2.22;83.50
68439;SHT31;55421;51.600;5.718;2023-02-15T06:22:59;2.19;83.41
68439;SHT31;55421;51.600;5.718;2023-02-15T06:25:26;2.15;83.31
68439;SHT31;55421;51.600;5.718;2023-02-15T06:27:52;2.13;83.30
68439;SHT31;55421;51.600;5.718;2023-02-15T06:30:18;2.11;83.19
68439;SHT31;55421;51.600;5.718;2023-02-15T06:32:46;2.07;83.02
68439;SHT31;55421;51.600;5.718;2023-02-15T06:35:13;2.06;82.95
68439;SHT31;55421;51.600;5.718;2023-02-15T06:37:44;2.01;82.91
68439;SHT31;55421;51.600;5.718;2023-02-15T06:40:12;1.96;82.87
68439;SHT31;55421;51.600;5.718;2023-02-15T06:42:40;1.89;82.88
68439;SHT31;55421;51.600;5.718;2023-02-15T06:45:08;1.83;83.02
68439;SHT31;55421;51.600;5.718;2023-02-15T06:47:36;1.83;83.28
68439;SHT31;55421;51.600;5.718;2023-02-15T06:50:05;1.83;83.40
68439;SHT31;55421;51.600;5.718;2023-02-15T06:52:32;1.86;83.42
68439;SHT31;55421;51.600;5.718;2023-02-15T06:54:59;1.89;83.40
68439;SHT31;55421;51.600;5.718;2023-02-15T06:57:26;1.92;83.38
68439;SHT31;55421;51.600;5.718;2023-02-15T06:59:52;1.97;83.49
68439;SHT31;55421;51.600;5.718;2023-02-15T07:02:19;2.03;83.57
68439;SHT31;55421;51.600;5.718;2023-02-15T07:04:45;2.05;83.53
68439;SHT31;55421;51.600;5.718;2023-02-15T07:07:12;2.07;83.48
68439;SHT31;55421;51.600;5.718;2023-02-15T07:09:39;2.05;83.46
68439;SHT31;55421;51.600;5.718;2023-02-15T07:12:05;2.07;83.56
68439;SHT31;55421;51.600;5.718;2023-02-15T07:14:51;2.12;83.53
68439;SHT31;55421;51.600;5.718;2023-02-15T07:17:18;2.16;83.53
68439;SHT31;55421;51.600;5.718;2023-02-15T07:19:44;2.23;83.52
68439;SHT31;55421;51.600;5.718;2023-02-15T07:22:11;2.27;83.50
68439;SHT31;55421;51.600;5.718;2023-02-15T07:24:37;2.30;83.37
68439;SHT31;55421;51.600;5.718;2023-02-15T07:27:04;2.31;83.30
68439;SHT31;55421;51.600;5.718;2023-02-15T07:29:33;2.36;83.27
68439;SHT31;55421;51.600;5.718;2023-02-15T07:32:00;2.42;83.23
68439;SHT31;55421;51.600;5.718;2023-02-15T07:34:26;2.46;83.13
68439;SHT31;55421;51.600;5.718;2023-02-15T07:36:53;2.49;82.98
68439;SHT31;55421;51.600;5.718;2023-02-15T07:39:19;2.47;82.82
68439;SHT31;55421;51.600;5.718;2023-02-15T07:41:46;2.47;82.79
68439;SHT31;55421;51.600;5.718;2023-02-15T07:44:13;2.48;82.81
68439;SHT31;55421;51.600;5.718;2023-02-15T07:46:41;2.48;82.90
68439;SHT31;55421;51.600;5.718;2023-02-15T07:49:07;2.51;82.96
68439;SHT31;55421;51.600;5.718;2023-02-15T07:51:34;2.59;83.08
68439;SHT31;55421;51.600;5.718;2023-02-15T07:54:00;2.69;83.11
68439;SHT31;55421;51.600;5.718;2023-02-15T07:56:27;2.78;83.13
68439;SHT31;55421;51.600;5.718;2023-02-15T07:58:53;2.86;83.13
68439;SHT31;55421;51.600;5.718;2023-02-15T08:01:25;2.92;83.02
68439;SHT31;55421;51.600;5.718;2023-02-15T08:03:55;2.97;82.91
68439;SHT31;55421;51.600;5.718;2023-02-15T08:06:23;3.01;82.90
68439;SHT31;55421;51.600;5.718;2023-02-15T08:08:53;3.06;82.86
68439;SHT31;55421;51.600;5.718;2023-02-15T08:11:21;3.13;82.84
68439;SHT31;55421;51.600;5.718;2023-02-15T08:13:53;3.20;82.88
68439;SHT31;55421;51.600;5.718;2023-02-15T08:16:55;3.26;82.88
68439;SHT31;55421;51.600;5.718;2023-02-15T08:19:17;3.32;82.86
68439;SHT31;55421;51.600;5.718;2023-02-15T08:21:52;3.36;82.90
68439;SHT31;55421;51.600;5.718;2023-02-15T08:24:23;3.43;82.90
68439;SHT31;55421;51.600;5.718;2023-02-15T08:26:52;3.51;82.90
68439;SHT31;55421;51.600;5.718;2023-02-15T08:29:20;3.62;82.90
68439;SHT31;55421;51.600;5.718;2023-02-15T08:31:52;3.72;82.86
68439;SHT31;55421;51.600;5.718;2023-02-15T08:34:24;3.80;82.77
68439;SHT31;55421;51.600;5.718;2023-02-15T08:36:51;3.86;82.64
68439;SHT31;55421;51.600;5.718;2023-02-15T08:39:17;3.91;82.60
68439;SHT31;55421;51.600;5.718;2023-02-15T08:41:45;3.97;82.58
68439;SHT31;55421;51.600;5.718;2023-02-15T08:44:14;4.04;82.60
68439;SHT31;55421;51.600;5.718;2023-02-15T08:46:46;4.11;82.51
68439;SHT31;55421;51.600;5.718;2023-02-15T08:49:15;4.21;82.43
68439;SHT31;55421;51.600;5.718;2023-02-15T08:51:48;4.30;82.36
68439;SHT31;55421;51.600;5.718;2023-02-15T08:54:16;4.36;82.26
68439;SHT31;55421;51.600;5.718;2023-02-15T08:56:48;4.43;82.18
68439;SHT31;55421;51.600;5.718;2023-02-15T08:59:16;4.49;82.07
68439;SHT31;55421;51.600;5.718;2023-02-15T09:01:48;4.54;82.00
68439;SHT31;55421;51.600;5.718;2023-02-15T09:04:17;4.61;82.02
68439;SHT31;55421;51.600;5.718;2023-02-15T09:06:45;4.67;81.96
68439;SHT31;55421;51.600;5.718;2023-02-15T09:09:15;4.72;81.87
68439;SHT31;55421;51.600;5.718;2023-02-15T09:11:44;4.79;81.80
68439;SHT31;55421;51.600;5.718;2023-02-15T09:14:16;4.90;81.80
68439;SHT31;55421;51.600;5.718;2023-02-15T09:16:46;5.02;81.79
68439;SHT31;55421;51.600;5.718;2023-02-15T09:19:15;5.12;81.69
68439;SHT31;55421;51.600;5.718;2023-02-15T09:21:44;5.19;81.58
68439;SHT31;55421;51.600;5.718;2023-02-15T09:24:12;5.22;81.48
68439;SHT31;55421;51.600;5.718;2023-02-15T09:26:42;5.26;81.40
68439;SHT31;55421;51.600;5.718;2023-02-15T09:29:11;5.33;81.41
68439;SHT31;55421;51.600;5.718;2023-02-15T09:31:40;5.39;81.38
68439;SHT31;55421;51.600;5.718;2023-02-15T09:34:15;5.49;81.35
68439;SHT31;55421;51.600;5.718;2023-02-15T09:36:44;5.59;81.26
68439;SHT31;55421;51.600;5.718;2023-02-15T09:39:15;5.69;81.18
68439;SHT31;55421;51.600;5.718;2023-02-15T09:44:53;5.94;81.06
68439;SHT31;55421;51.600;5.718;2023-02-15T09:56:39;6.36;80.34
68439;SHT31;55421;51.600;5.718;2023-02-15T10:20:55;7.22;79.12
68439;SHT31;55421;51.600;5.718;2023-02-15T10:26:42;7.47;78.64
68439;SHT31;55421;51.600;5.718;2023-02-15T10:35:13;7.81;78.14
68439;SHT31;55421;51.600;5.718;2023-02-15T10:38:04;7.88;77.80
68439;SHT31;55421;51.600;5.718;2023-02-15T10:49:23;8.26;77.13
68439;SHT31;55421;51.600;5.718;2023-02-15T10:54:48;8.50;76.43
68439;SHT31;55421;51.600;5.718;2023-02-15T10:57:25;8.61;76.15
68439;SHT31;55421;51.600;5.718;2023-02-15T11:02:56;8.87;75.65
68439;SHT31;55421;51.600;5.718;2023-02-15T11:08:49;9.11;74.88
68439;SHT31;55421;51.600;5.718;2023-02-15T11:11:28;9.21;74.44
68439;SHT31;55421;51.600;5.718;2023-02-15T11:14:08;9.31;74.21
68439;SHT31;55421;51.600;5.718;2023-02-15T11:16:49;9.42;74.09
68439;SHT31;55421;51.600;5.718;2023-02-15T11:19:26;9.52;74.01
68439;SHT31;55421;51.600;5.718;2023-02-15T11:21:59;9.60;73.68
68439;SHT31;55421;51.600;5.718;2023-02-15T11:24:40;9.68;73.30
68439;SHT31;55421;51.600;5.718;2023-02-15T11:32:45;9.97;72.70
68439;SHT31;55421;51.600;5.718;2023-02-15T11:35:27;10.04;72.42
68439;SHT31;55421;51.600;5.718;2023-02-15T11:43:31;10.14;71.08
68439;SHT31;55421;51.600;5.718;2023-02-15T11:46:07;10.16;70.69
68439;SHT31;55421;51.600;5.718;2023-02-15T11:48:37;10.20;70.49
68439;SHT31;55421;51.600;5.718;2023-02-15T11:51:05;10.23;70.17
68439;SHT31;55421;51.600;5.718;2023-02-15T11:53:32;10.28;69.99
68439;SHT31;55421;51.600;5.718;2023-02-15T11:56:04;10.35;70.22
68439;SHT31;55421;51.600;5.718;2023-02-15T11:58:52;10.42;69.94
68439;SHT31;55421;51.600;5.718;2023-02-15T12:04:06;10.58;69.60
68439;SHT31;55421;51.600;5.718;2023-02-15T12:06:53;10.66;69.50
68439;SHT31;55421;51.600;5.718;2023-02-15T12:09:35;10.76;69.28
68439;SHT31;55421;51.600;5.718;2023-02-15T12:12:25;10.83;68.81
68439;SHT31;55421;51.600;5.718;2023-02-15T12:14:59;10.87;68.41
68439;SHT31;55421;51.600;5.718;2023-02-15T12:17:29;10.90;68.42
68439;SHT31;55421;51.600;5.718;2023-02-15T12:20:06;10.94;68.52
68439;SHT31;55421;51.600;5.718;2023-02-15T12:28:18;11.08;67.89
68439;SHT31;55421;51.600;5.718;2023-02-15T12:30:56;11.14;67.73
68439;SHT31;55421;51.600;5.718;2023-02-15T12:33:39;11.20;67.62
68439;SHT31;55421;51.600;5.718;2023-02-15T12:36:18;11.28;67.75
68439;SHT31;55421;51.600;5.718;2023-02-15T12:39:15;11.37;67.82
68439;SHT31;55421;51.600;5.718;2023-02-15T12:44:27;11.44;67.24
68439;SHT31;55421;51.600;5.718;2023-02-15T12:47:06;11.44;67.11
68439;SHT31;55421;51.600;5.718;2023-02-15T12:49:45;11.46;66.85
68439;SHT31;55421;51.600;5.718;2023-02-15T12:52:37;11.47;66.86
68439;SHT31;55421;51.600;5.718;2023-02-15T12:55:24;11.51;66.74
68439;SHT31;55421;51.600;5.718;2023-02-15T12:58:06;11.55;66.47
68439;SHT31;55421;51.600;5.718;2023-02-15T13:00:40;11.59;66.25
68439;SHT31;55421;51.600;5.718;2023-02-15T13:03:14;11.61;65.98
68439;SHT31;55421;51.600;5.718;2023-02-15T13:05:44;11.62;65.86
68439;SHT31;55421;51.600;5.718;2023-02-15T13:09:06;11.65;66.00
68439;SHT31;55421;51.600;5.718;2023-02-15T13:11:19;11.69;65.74
68439;SHT31;55421;51.600;5.718;2023-02-15T13:13:55;11.71;65.74
68439;SHT31;55421;51.600;5.718;2023-02-15T13:19:06;11.76;65.51
68439;SHT31;55421;51.600;5.718;2023-02-15T13:21:41;11.79;65.41
68439;SHT31;55421;51.600;5.718;2023-02-15T13:24:19;11.83;65.27
68439;SHT31;55421;51.600;5.718;2023-02-15T13:26:52;11.88;65.29
68439;SHT31;55421;51.600;5.718;2023-02-15T13:29:30;11.96;65.43
68439;SHT31;55421;51.600;5.718;2023-02-15T13:32:07;12.03;65.36
68439;SHT31;55421;51.600;5.718;2023-02-15T13:34:40;12.08;65.38
68439;SHT31;55421;51.600;5.718;2023-02-15T13:40:15;12.10;65.11
68439;SHT31;55421;51.600;5.718;2023-02-15T13:46:24;12.09;64.79
68439;SHT31;55421;51.600;5.718;2023-02-15T13:52:08;12.12;64.81
68439;SHT31;55421;51.600;5.718;2023-02-15T13:58:09;12.15;64.92
68439;SHT31;55421;51.600;5.718;2023-02-15T14:09:53;12.20;65.99
68439;SHT31;55421;51.600;5.718;2023-02-15T14:18:54;12.26;65.93
68439;SHT31;55421;51.600;5.718;2023-02-15T14:21:43;12.25;65.76
68439;SHT31;55421;51.600;5.718;2023-02-15T14:27:02;12.26;65.62
68439;SHT31;55421;51.600;5.718;2023-02-15T14:29:41;12.25;65.69
68439;SHT31;55421;51.600;5.718;2023-02-15T14:32:22;12.25;65.64
68439;SHT31;55421;51.600;5.718;2023-02-15T14:35:02;12.25;65.49
68439;SHT31;55421;51.600;5.718;2023-02-15T14:37:52;12.24;65.61
68439;SHT31;55421;51.600;5.718;2023-02-15T14:43:49;12.22;65.56
68439;SHT31;55421;51.600;5.718;2023-02-15T14:56:44;12.11;65.78
68439;SHT31;55421;51.600;5.718;2023-02-15T14:59:19;12.08;65.48
68439;SHT31;55421;51.600;5.718;2023-02-15T15:02:39;12.06;65.14
68439;SHT31;55421;51.600;5.718;2023-02-15T15:05:00;12.01;64.97
68439;SHT31;55421;51.600;5.718;2023-02-15T15:12:55;11.86;65.01
68439;SHT31;55421;51.600;5.718;2023-02-15T15:25:41;11.65;63.93
68439;SHT31;55421;51.600;5.718;2023-02-15T15:31:01;11.59;64.16
68439;SHT31;55421;51.600;5.718;2023-02-15T15:39:52;11.42;64.46
68439;SHT31;55421;51.600;5.718;2023-02-15T15:42:43;11.35;64.60
68439;SHT31;55421;51.600;5.718;2023-02-15T15:51:17;11.19;65.11
68439;SHT31;55421;51.600;5.718;2023-02-15T15:53:53;11.13;65.19
68439;SHT31;55421;51.600;5.718;2023-02-15T15:56:25;11.08;65.33
68439;SHT31;55421;51.600;5.718;2023-02-15T15:59:06;11.02;65.40
68439;SHT31;55421;51.600;5.718;2023-02-15T16:01:43;10.95;65.47
68439;SHT31;55421;51.600;5.718;2023-02-15T16:04:13;10.90;65.59
68439;SHT31;55421;51.600;5.718;2023-02-15T16:07:05;10.84;65.77
68439;SHT31;55421;51.600;5.718;2023-02-15T16:09:40;10.77;65.99
68439;SHT31;55421;51.600;5.718;2023-02-15T16:12:13;10.74;66.16
68439;SHT31;55421;51.600;5.718;2023-02-15T16:14:45;10.69;66.21
68439;SHT31;55421;51.600;5.718;2023-02-15T16:17:19;10.69;66.08
68439;SHT31;55421;51.600;5.718;2023-02-15T16:19:53;10.70;66.07
68439;SHT31;55421;51.600;5.718;2023-02-15T16:22:30;10.69;66.21
68439;SHT31;55421;51.600;5.718;2023-02-15T16:28:07;10.62;66.45
68439;SHT31;55421;51.600;5.718;2023-02-15T16:30:39;10.56;66.62
68439;SHT31;55421;51.600;5.718;2023-02-15T16:39:16;10.40;66.90
68439;SHT31;55421;51.600;5.718;2023-02-15T16:41:15;10.35;67.04
68439;SHT31;55421;51.600;5.718;2023-02-15T16:43:53;10.30;67.18
68439;SHT31;55421;51.600;5.718;2023-02-15T16:46:27;10.24;67.26
68439;SHT31;55421;51.600;5.718;2023-02-15T16:49:07;10.18;67.46
68439;SHT31;55421;51.600;5.718;2023-02-15T16:51:45;10.12;67.61
68439;SHT31;55421;51.600;5.718;2023-02-15T16:54:24;10.04;67.73
68439;SHT31;55421;51.600;5.718;2023-02-15T16:56:54;9.98;67.84
68439;SHT31;55421;51.600;5.718;2023-02-15T16:59:56;9.91;67.97
68439;SHT31;55421;51.600;5.718;2023-02-15T17:02:21;9.87;68.17
68439;SHT31;55421;51.600;5.718;2023-02-15T17:05:01;9.83;68.30
68439;SHT31;55421;51.600;5.718;2023-02-15T17:07:41;9.79;68.43
68439;SHT31;55421;51.600;5.718;2023-02-15T17:10:35;9.78;68.55
68439;SHT31;55421;51.600;5.718;2023-02-15T17:13:14;9.74;68.71
68439;SHT31;55421;51.600;5.718;2023-02-15T17:16:27;9.70;68.85
68439;SHT31;55421;51.600;5.718;2023-02-15T17:19:00;9.64;69.03
68439;SHT31;55421;51.600;5.718;2023-02-15T17:21:36;9.58;69.20
68439;SHT31;55421;51.600;5.718;2023-02-15T17:24:16;9.54;69.45
68439;SHT31;55421;51.600;5.718;2023-02-15T17:27:02;9.49;69.55
68439;SHT31;55421;51.600;5.718;2023-02-15T17:29:38;9.44;69.72
68439;SHT31;55421;51.600;5.718;2023-02-15T17:32:17;9.40;69.91
68439;SHT31;55421;51.600;5.718;2023-02-15T17:34:50;9.35;70.08
68439;SHT31;55421;51.600;5.718;2023-02-15T17:37:26;9.31;70.20
68439;SHT31;55421;51.600;5.718;2023-02-15T17:40:21;9.26;70.39
68439;SHT31;55421;51.600;5.718;2023-02-15T17:42:50;9.23;70.55
68439;SHT31;55421;51.600;5.718;2023-02-15T17:45:18;9.22;70.68
68439;SHT31;55421;51.600;5.718;2023-02-15T17:47:46;9.21;70.77
68439;SHT31;55421;51.600;5.718;2023-02-15T17:50:17;9.18;70.91
68439;SHT31;55421;51.600;5.718;2023-02-15T17:52:47;9.18;70.99
68439;SHT31;55421;51.600;5.718;2023-02-15T17:55:18;9.14;71.07
68439;SHT31;55421;51.600;5.718;2023-02-15T17:58:07;9.09;71.13
68439;SHT31;55421;51.600;5.718;2023-02-15T18:00:46;9.04;71.22
68439;SHT31;55421;51.600;5.718;2023-02-15T18:03:40;8.99;71.32
68439;SHT31;55421;51.600;5.718;2023-02-15T18:06:32;8.93;71.42
68439;SHT31;55421;51.600;5.718;2023-02-15T18:09:21;8.87;71.53
68439;SHT31;55421;51.600;5.718;2023-02-15T18:15:05;8.74;71.83
68439;SHT31;55421;51.600;5.718;2023-02-15T18:17:33;8.69;71.93
68439;SHT31;55421;51.600;5.718;2023-02-15T18:20:05;8.66;72.03
68439;SHT31;55421;51.600;5.718;2023-02-15T18:22:43;8.63;72.16
68439;SHT31;55421;51.600;5.718;2023-02-15T18:25:12;8.62;72.21
68439;SHT31;55421;51.600;5.718;2023-02-15T18:27:40;8.62;72.27
68439;SHT31;55421;51.600;5.718;2023-02-15T18:30:07;8.63;72.38
68439;SHT31;55421;51.600;5.718;2023-02-15T18:32:40;8.63;72.33
68439;SHT31;55421;51.600;5.718;2023-02-15T18:35:12;8.63;72.41
68439;SHT31;55421;51.600;5.718;2023-02-15T18:37:41;8.61;72.44
68439;SHT31;55421;51.600;5.718;2023-02-15T18:40:13;8.60;72.50
68439;SHT31;55421;51.600;5.718;2023-02-15T18:42:47;8.58;72.55
68439;SHT31;55421;51.600;5.718;2023-02-15T18:47:50;8.51;72.71
68439;SHT31;55421;51.600;5.718;2023-02-15T18:50:18;8.47;72.81
68439;SHT31;55421;51.600;5.718;2023-02-15T18:52:47;8.43;72.91
68439;SHT31;55421;51.600;5.718;2023-02-15T18:55:19;8.39;72.98
68439;SHT31;55421;51.600;5.718;2023-02-15T18:57:51;8.34;73.03
68439;SHT31;55421;51.600;5.718;2023-02-15T19:00:21;8.31;73.11
68439;SHT31;55421;51.600;5.718;2023-02-15T19:02:51;8.29;73.20
68439;SHT31;55421;51.600;5.718;2023-02-15T19:05:19;8.29;73.33
68439;SHT31;55421;51.600;5.718;2023-02-15T19:07:48;8.29;73.40
68439;SHT31;55421;51.600;5.718;2023-02-15T19:10:17;8.29;73.45
68439;SHT31;55421;51.600;5.718;2023-02-15T19:12:50;8.29;73.51
68439;SHT31;55421;51.600;5.718;2023-02-15T19:15:26;8.28;73.50
68439;SHT31;55421;51.600;5.718;2023-02-15T19:17:55;8.27;73.54
68439;SHT31;55421;51.600;5.718;2023-02-15T19:20:23;8.27;73.60
68439;SHT31;55421;51.600;5.718;2023-02-15T19:22:54;8.25;73.61
68439;SHT31;55421;51.600;5.718;2023-02-15T19:25:27;8.22;73.64
68439;SHT31;55421;51.600;5.718;2023-02-15T19:27:57;8.21;73.75
68439;SHT31;55421;51.600;5.718;2023-02-15T19:30:27;8.19;73.81
68439;SHT31;55421;51.600;5.718;2023-02-15T19:32:57;8.18;73.84
68439;SHT31;55421;51.600;5.718;2023-02-15T19:35:25;8.17;73.90
68439;SHT31;55421;51.600;5.718;2023-02-15T19:37:57;8.16;74.00
68439;SHT31;55421;51.600;5.718;2023-02-15T19:40:28;8.16;74.00
68439;SHT31;55421;51.600;5.718;2023-02-15T19:42:57;8.14;74.05
68439;SHT31;55421;51.600;5.718;2023-02-15T19:45:25;8.13;74.13